createdAt,value
2022-08-21T00:01:52.992Z,10.45
2022-08-21T00:04:20.871Z,11.25
2022-08-21T00:06:51.871Z,14.13
2022-08-21T00:09:20.413Z,12.65
2022-08-21T00:11:48.233Z,12.68
2022-08-21T00:14:16.061Z,10.65
2022-08-21T00:16:43.522Z,10.93
2022-08-21T00:19:11.244Z,14.45
2022-08-21T00:21:38.977Z,11.98
2022-08-21T00:24:06.240Z,12.82
2022-08-21T00:26:34.987Z,17.27
2022-08-21T00:29:04.819Z,15.77
2022-08-21T00:31:31.983Z,12.20
2022-08-21T00:34:01.133Z,10.65
2022-08-21T00:36:29.255Z,21.42
2022-08-21T00:38:57.274Z,20.48
2022-08-21T00:41:37.018Z,26.85
2022-08-21T00:44:09.062Z,24.85
2022-08-21T00:46:38.024Z,18.55
2022-08-21T00:49:07.830Z,20.50
2022-08-21T00:51:50.136Z,22.25
2022-08-21T00:54:21.032Z,11.07
2022-08-21T00:56:55.969Z,12.10
2022-08-21T00:59:29.726Z,15.00
2022-08-21T01:01:57.039Z,12.52
2022-08-21T01:04:24.739Z,13.38
2022-08-21T01:06:52.347Z,14.27
2022-08-21T01:09:20.378Z,12.30
2022-08-21T01:11:47.846Z,12.52
2022-08-21T01:14:15.664Z,13.52
2022-08-21T01:16:48.524Z,14.70
2022-08-21T01:19:18.435Z,18.63
2022-08-21T01:21:45.666Z,14.95
2022-08-21T01:24:13.895Z,13.82
2022-08-21T01:26:41.368Z,18.33
2022-08-21T01:29:30.814Z,15.98
2022-08-21T01:32:03.662Z,12.07
2022-08-21T01:34:31.083Z,15.50
2022-08-21T01:36:58.180Z,14.02
2022-08-21T01:39:25.267Z,13.15
2022-08-21T01:41:52.370Z,9.77
2022-08-21T01:44:25.219Z,9.98
2022-08-21T01:46:53.674Z,11.98
2022-08-21T01:49:21.305Z,11.32
2022-08-21T01:51:48.637Z,11.02
2022-08-21T01:54:15.856Z,10.63
2022-08-21T01:56:47.282Z,12.07
2022-08-21T01:59:14.852Z,9.38
2022-08-21T02:01:42.179Z,10.45
2022-08-21T02:04:10.616Z,14.32
2022-08-21T02:06:38.272Z,17.88
2022-08-21T02:09:08.268Z,29.88
2022-08-21T02:11:36.911Z,24.55
2022-08-21T02:14:04.287Z,19.63
2022-08-21T02:16:31.371Z,22.33
2022-08-21T02:19:00.467Z,22.25
2022-08-21T02:21:27.704Z,16.35
2022-08-21T02:23:54.886Z,22.70
2022-08-21T02:26:22.066Z,14.82
2022-08-21T02:28:49.346Z,23.83
2022-08-21T02:31:16.497Z,17.92
2022-08-21T02:33:43.918Z,17.83
2022-08-21T02:36:12.708Z,17.95
2022-08-21T02:38:42.056Z,10.57
2022-08-21T02:41:17.840Z,14.45
2022-08-21T02:43:45.698Z,17.77
2022-08-21T02:46:16.309Z,17.08
2022-08-21T02:48:44.114Z,11.05
2022-08-21T02:51:18.641Z,13.07
2022-08-21T02:53:49.046Z,15.20
2022-08-21T02:56:20.718Z,12.88
2022-08-21T02:58:52.472Z,12.82
2022-08-21T03:01:22.079Z,13.57
2022-08-21T03:03:52.490Z,13.73
2022-08-21T03:06:22.534Z,15.98
2022-08-21T03:08:50.396Z,12.98
2022-08-21T03:11:17.863Z,11.75
2022-08-21T03:13:45.020Z,11.00
2022-08-21T03:16:12.407Z,13.13
2022-08-21T03:18:39.940Z,10.23
2022-08-21T03:21:07.642Z,14.13
2022-08-21T03:23:35.037Z,11.00
2022-08-21T03:26:02.639Z,22.40
2022-08-21T03:28:29.849Z,37.88
2022-08-21T03:30:57.035Z,37.00
2022-08-21T03:33:24.609Z,36.30
2022-08-21T03:36:04.759Z,33.58
2022-08-21T03:38:34.375Z,32.58
2022-08-21T03:41:02.553Z,25.75
2022-08-21T03:43:30.995Z,29.67
2022-08-21T03:46:03.757Z,36.53
2022-08-21T03:48:31.671Z,29.88
2022-08-21T03:50:58.865Z,25.13
2022-08-21T03:53:26.607Z,15.00
2022-08-21T03:55:54.550Z,18.97
2022-08-21T03:58:26.277Z,12.82
2022-08-21T04:00:57.056Z,16.27
2022-08-21T04:03:24.902Z,16.00
2022-08-21T04:05:52.215Z,13.40
2022-08-21T04:08:20.135Z,13.45
2022-08-21T04:10:51.381Z,13.27
2022-08-21T04:13:19.913Z,16.85
2022-08-21T04:18:14.259Z,17.45
2022-08-21T04:20:50.050Z,16.52
2022-08-21T04:23:23.717Z,14.95
2022-08-21T04:25:53.951Z,29.05
2022-08-21T04:28:23.259Z,17.20
2022-08-21T04:30:52.499Z,14.85
2022-08-21T04:33:21.652Z,21.08
2022-08-21T04:35:49.903Z,11.48
2022-08-21T04:38:18.062Z,15.82
2022-08-21T04:40:45.548Z,15.45
2022-08-21T04:43:12.791Z,14.48
2022-08-21T04:45:46.145Z,14.20
2022-08-21T04:48:15.626Z,14.63
2022-08-21T04:50:51.398Z,20.30
2022-08-21T04:53:34.760Z,22.45
2022-08-21T04:56:11.937Z,14.45
2022-08-21T04:58:42.719Z,16.05
2022-08-21T05:01:15.927Z,26.02
2022-08-21T05:03:43.876Z,23.48
2022-08-21T05:06:13.357Z,30.08
2022-08-21T05:08:41.675Z,22.95
2022-08-21T05:11:08.889Z,16.95
2022-08-21T05:13:36.537Z,18.45
2022-08-21T05:16:04.049Z,15.48
2022-08-21T05:18:31.157Z,25.02
2022-08-21T05:20:58.392Z,18.92
2022-08-21T05:23:25.908Z,22.08
2022-08-21T05:25:53.895Z,22.75
2022-08-21T05:28:21.119Z,24.15
2022-08-21T05:30:48.262Z,12.93
2022-08-21T05:33:15.634Z,21.83
2022-08-21T05:35:42.720Z,16.95
2022-08-21T05:38:16.520Z,26.20
2022-08-21T05:40:46.802Z,21.98
2022-08-21T05:43:15.082Z,16.55
2022-08-21T05:45:44.209Z,23.30
2022-08-21T05:48:17.279Z,24.02
2022-08-21T05:50:46.480Z,20.33
2022-08-21T05:53:15.860Z,25.05
2022-08-21T05:55:46.117Z,18.67
2022-08-21T05:58:19.810Z,25.42
2022-08-21T06:00:49.596Z,21.75
2022-08-21T06:03:24.327Z,17.88
2022-08-21T06:05:51.964Z,13.70
2022-08-21T06:08:20.683Z,15.03
2022-08-21T06:10:50.048Z,15.07
2022-08-21T06:13:20.037Z,16.13
2022-08-21T06:15:48.257Z,15.45
2022-08-21T06:18:15.996Z,21.63
2022-08-21T06:20:44.486Z,15.30
2022-08-21T06:25:38.569Z,14.27
2022-08-21T06:28:10.427Z,21.98
2022-08-21T06:30:39.833Z,16.50
2022-08-21T06:33:07.713Z,14.93
2022-08-21T06:35:35.739Z,15.07
2022-08-21T06:38:03.458Z,18.40
2022-08-21T06:40:34.230Z,14.60
2022-08-21T06:43:15.157Z,16.63
2022-08-21T06:45:44.443Z,15.27
2022-08-21T06:48:14.610Z,14.00
2022-08-21T06:50:46.835Z,16.52
2022-08-21T06:53:18.409Z,17.50
2022-08-21T06:55:46.324Z,18.55
2022-08-21T06:58:13.766Z,23.08
2022-08-21T07:00:44.832Z,15.32
2022-08-21T07:03:34.703Z,12.07
2022-08-21T07:06:02.596Z,14.60
2022-08-21T07:08:30.091Z,11.48
2022-08-21T07:11:17.424Z,16.52
2022-08-21T07:13:45.427Z,15.57
2022-08-21T07:16:12.908Z,13.88
2022-08-21T07:18:40.159Z,17.38
2022-08-21T07:21:08.895Z,15.13
2022-08-21T07:23:43.269Z,13.20
2022-08-21T07:26:11.930Z,21.65
2022-08-21T07:31:06.967Z,18.48
2022-08-21T07:33:36.043Z,20.23
2022-08-21T07:36:03.999Z,15.38
2022-08-21T07:38:31.218Z,16.80
2022-08-21T07:41:01.717Z,12.10
2022-08-21T07:43:30.162Z,13.95
2022-08-21T07:48:24.953Z,20.58
2022-08-21T07:50:52.604Z,21.23
2022-08-21T07:53:19.744Z,11.02
2022-08-21T07:55:47.059Z,12.02
2022-08-21T07:58:14.115Z,15.77
2022-08-21T08:00:41.966Z,15.32
2022-08-21T08:03:09.164Z,12.82
2022-08-21T08:05:39.386Z,23.80
2022-08-21T08:08:06.483Z,14.95
2022-08-21T08:10:34.193Z,18.98
2022-08-21T08:13:01.850Z,12.48
2022-08-21T08:15:30.297Z,15.88
2022-08-21T08:17:58.674Z,15.73
2022-08-21T08:20:29.653Z,13.80
2022-08-21T08:22:57.051Z,14.35
2022-08-21T08:25:26.344Z,15.05
2022-08-21T08:27:53.702Z,11.57
2022-08-21T08:30:22.108Z,15.68
2022-08-21T08:32:49.862Z,14.27
2022-08-21T08:35:17.445Z,19.52
2022-08-21T08:37:46.746Z,19.03
2022-08-21T08:40:31.020Z,14.20
2022-08-21T08:42:58.351Z,10.80
2022-08-21T08:45:27.532Z,12.60
2022-08-21T08:48:00.591Z,17.08
2022-08-21T08:50:58.258Z,15.65
2022-08-21T08:53:32.750Z,9.43
2022-08-21T08:56:02.854Z,9.60
2022-08-21T08:58:43.086Z,9.10
2022-08-21T09:01:19.345Z,9.43
2022-08-21T09:03:50.294Z,9.45
2022-08-21T09:06:43.119Z,12.52
2022-08-21T09:09:42.072Z,16.27
2022-08-21T09:12:24.699Z,11.15
2022-08-21T09:15:11.744Z,9.38
2022-08-21T09:18:00.050Z,19.15
2022-08-21T09:21:04.617Z,9.48
2022-08-21T09:23:48.903Z,13.50
2022-08-21T09:26:27.452Z,13.10
2022-08-21T09:28:58.917Z,8.65
2022-08-21T09:31:39.143Z,9.05
2022-08-21T09:34:11.610Z,10.38
2022-08-21T09:36:49.617Z,11.48
2022-08-21T09:39:42.635Z,17.20
2022-08-21T09:42:33.744Z,10.38
2022-08-21T09:47:43.517Z,9.95
2022-08-21T09:50:24.422Z,13.18
2022-08-21T09:52:58.963Z,14.45
2022-08-21T09:56:05.877Z,9.95
2022-08-21T09:58:37.537Z,11.18
2022-08-21T10:01:07.532Z,17.48
2022-08-21T10:03:34.781Z,8.57
2022-08-21T10:06:10.471Z,8.05
2022-08-21T10:08:40.553Z,21.10
2022-08-21T10:11:15.477Z,12.52
2022-08-21T10:14:01.031Z,11.05
2022-08-21T10:16:53.487Z,11.30
2022-08-21T10:19:33.592Z,30.73
2022-08-21T10:22:12.604Z,11.43
2022-08-21T10:25:26.152Z,13.25
2022-08-21T10:28:04.029Z,15.13
2022-08-21T10:31:14.130Z,12.43
2022-08-21T10:33:58.296Z,11.25
2022-08-21T10:36:52.948Z,11.48
2022-08-21T10:40:01.322Z,10.15
2022-08-21T10:42:55.976Z,13.95
2022-08-21T10:45:46.301Z,16.40
2022-08-21T10:48:43.925Z,12.32
2022-08-21T10:51:34.487Z,13.40
2022-08-21T10:55:08.937Z,12.90
2022-08-21T10:58:14.988Z,7.03
2022-08-21T11:00:53.907Z,9.80
2022-08-21T11:03:52.415Z,10.57
2022-08-21T11:06:32.019Z,17.73
2022-08-21T11:09:15.492Z,19.63
2022-08-21T11:12:12.603Z,8.27
2022-08-21T11:15:29.120Z,10.50
2022-08-21T11:18:29.241Z,12.45
2022-08-21T11:21:29.991Z,11.02
2022-08-21T11:24:31.364Z,10.13
2022-08-21T11:27:24.864Z,9.30
2022-08-21T11:29:58.106Z,5.88
2022-08-21T11:33:02.043Z,10.98
2022-08-21T11:35:32.290Z,15.48
2022-08-21T11:38:20.916Z,13.20
2022-08-21T11:41:30.288Z,14.20
2022-08-21T11:44:09.259Z,7.93
2022-08-21T11:47:15.712Z,7.63
2022-08-21T11:50:29.739Z,9.95
2022-08-21T11:53:54.178Z,14.07
2022-08-21T11:56:42.628Z,12.07
2022-08-21T11:59:38.789Z,17.98
2022-08-21T12:02:23.494Z,10.50
2022-08-21T12:04:59.657Z,12.07
2022-08-21T12:07:43.237Z,14.57
2022-08-21T12:10:22.415Z,10.55
2022-08-21T12:12:49.710Z,10.02
2022-08-21T12:15:28.137Z,7.38
2022-08-21T12:18:07.223Z,12.23
2022-08-21T12:20:40.074Z,12.05
2022-08-21T12:23:29.182Z,12.75
2022-08-21T12:26:23.630Z,12.85
2022-08-21T12:28:51.100Z,10.48
2022-08-21T12:31:26.959Z,13.38
2022-08-21T12:34:03.134Z,11.27
2022-08-21T12:36:53.764Z,8.98
2022-08-21T12:39:27.336Z,14.82
2022-08-21T12:42:17.310Z,9.77
2022-08-21T12:44:58.454Z,12.15
2022-08-21T12:48:04.740Z,10.15
2022-08-21T12:51:00.965Z,11.13
2022-08-21T12:53:52.400Z,9.60
2022-08-21T12:56:23.416Z,8.18
2022-08-21T12:59:02.218Z,11.40
2022-08-21T13:01:51.782Z,12.48
2022-08-21T13:04:41.593Z,11.25
2022-08-21T13:07:12.652Z,10.43
2022-08-21T13:09:54.692Z,10.43
2022-08-21T13:12:24.234Z,12.23
2022-08-21T13:15:02.220Z,8.00
2022-08-21T13:17:35.605Z,8.60
2022-08-21T13:20:22.579Z,18.85
2022-08-21T13:22:50.130Z,12.82
2022-08-21T13:25:20.895Z,10.87
2022-08-21T13:28:17.781Z,12.15
2022-08-21T13:30:52.406Z,9.15
2022-08-21T13:33:25.536Z,11.30
2022-08-21T13:36:41.620Z,10.27
2022-08-21T13:39:12.968Z,7.85
2022-08-21T13:41:45.941Z,9.52
2022-08-21T13:44:26.861Z,9.13
2022-08-21T13:46:55.070Z,12.88
2022-08-21T13:49:31.449Z,8.00
2022-08-21T13:51:59.036Z,8.63
2022-08-21T13:54:40.476Z,6.72
2022-08-21T13:57:19.589Z,13.40
2022-08-21T13:59:46.984Z,14.90
2022-08-21T14:02:22.704Z,16.13
2022-08-21T14:05:01.786Z,14.00
2022-08-21T14:07:38.399Z,29.17
2022-08-21T14:10:13.893Z,15.25
2022-08-21T14:12:48.422Z,21.77
2022-08-21T14:15:19.199Z,19.75
2022-08-21T14:17:46.725Z,21.58
2022-08-21T14:20:36.475Z,16.55
2022-08-21T14:23:03.740Z,15.80
2022-08-21T14:25:45.094Z,6.30
2022-08-21T14:28:29.131Z,9.38
2022-08-21T14:30:58.158Z,6.88
2022-08-21T14:33:28.882Z,5.60
2022-08-21T14:35:56.340Z,8.18
2022-08-21T14:38:26.460Z,19.05
2022-08-21T14:41:00.823Z,8.52
2022-08-21T14:43:28.910Z,7.60
2022-08-21T14:45:57.240Z,8.45
2022-08-21T14:48:24.748Z,7.35
2022-08-21T14:50:54.981Z,9.23
2022-08-21T14:53:24.258Z,10.32
2022-08-21T14:56:10.341Z,10.00
2022-08-21T14:58:45.461Z,7.50
2022-08-21T15:01:15.774Z,11.25
2022-08-21T15:03:43.305Z,9.68
2022-08-21T15:06:11.026Z,12.63
2022-08-21T15:08:38.355Z,14.88
2022-08-21T15:11:18.590Z,18.40
2022-08-21T15:14:00.813Z,14.55
2022-08-21T15:16:33.846Z,18.20
2022-08-21T15:19:00.993Z,21.13
2022-08-21T15:21:28.123Z,16.25
2022-08-21T15:23:55.490Z,15.55
2022-08-21T15:26:24.244Z,9.65
2022-08-21T15:28:51.477Z,11.57
2022-08-21T15:31:18.657Z,13.10
2022-08-21T15:33:45.762Z,16.88
2022-08-21T15:36:13.124Z,14.70
2022-08-21T15:38:40.268Z,10.85
2022-08-21T15:41:07.520Z,13.90
2022-08-21T15:43:49.731Z,14.27
2022-08-21T15:46:19.127Z,14.30
2022-08-21T15:48:46.803Z,24.02
2022-08-21T15:51:16.948Z,23.43
2022-08-21T15:53:46.727Z,23.38
2022-08-21T15:56:33.164Z,25.30
2022-08-21T15:59:08.617Z,26.65
2022-08-21T16:01:45.001Z,34.78
2022-08-21T16:04:25.074Z,23.60
2022-08-21T16:06:55.808Z,22.75
2022-08-21T16:09:25.232Z,20.23
2022-08-21T16:11:53.512Z,20.33
2022-08-21T16:14:20.688Z,15.32
2022-08-21T16:16:47.803Z,17.45
2022-08-21T16:19:15.000Z,19.50
2022-08-21T16:21:42.158Z,20.80
2022-08-21T16:24:09.445Z,25.98
2022-08-21T16:26:36.983Z,16.55
2022-08-21T16:29:06.747Z,25.83
2022-08-21T16:31:34.642Z,28.60
2022-08-21T16:34:02.359Z,25.15
2022-08-21T16:36:29.950Z,24.07
2022-08-21T16:38:59.977Z,22.97
2022-08-21T16:41:34.501Z,23.30
2022-08-21T16:44:03.333Z,18.63
2022-08-21T16:46:36.159Z,18.60
2022-08-21T16:49:03.552Z,18.15
2022-08-21T16:51:31.001Z,12.93
2022-08-21T16:53:59.373Z,10.50
2022-08-21T16:56:26.733Z,12.52
2022-08-21T16:58:56.328Z,10.60
2022-08-21T17:01:27.950Z,8.82
2022-08-21T17:03:56.178Z,10.65
2022-08-21T17:06:27.329Z,11.95
2022-08-21T17:08:57.431Z,8.20
2022-08-21T17:11:38.711Z,13.82
2022-08-21T17:14:12.892Z,10.45
2022-08-21T17:16:44.408Z,16.27
2022-08-21T17:19:12.741Z,17.92
2022-08-21T17:21:40.303Z,13.25
2022-08-21T17:24:07.778Z,13.82
2022-08-21T17:26:36.239Z,11.75
2022-08-21T17:31:38.388Z,10.00
2022-08-21T17:34:07.699Z,15.73
2022-08-21T17:36:35.080Z,12.52
2022-08-21T17:39:03.454Z,10.57
2022-08-21T17:41:30.702Z,10.65
2022-08-21T17:43:59.412Z,17.13
2022-08-21T17:46:28.460Z,13.52
2022-08-21T17:48:57.069Z,14.07
2022-08-21T17:51:24.478Z,14.77
2022-08-21T17:53:51.903Z,15.88
2022-08-21T17:56:20.277Z,12.48
2022-08-21T17:58:50.704Z,12.50
2022-08-21T18:01:18.964Z,20.02
2022-08-21T18:03:47.636Z,14.75
2022-08-21T18:06:17.936Z,13.68
2022-08-21T18:08:46.144Z,11.02
2022-08-21T18:11:23.094Z,14.48
2022-08-21T18:13:53.581Z,20.67
2022-08-21T18:16:22.587Z,18.77
2022-08-21T18:18:51.244Z,15.50
2022-08-21T18:21:19.111Z,16.35
2022-08-21T18:23:46.383Z,27.23
2022-08-21T18:26:25.304Z,29.60
2022-08-21T18:28:52.508Z,45.53
2022-08-21T18:31:20.961Z,51.22
2022-08-21T18:33:57.847Z,41.90
2022-08-21T18:36:27.827Z,47.35
2022-08-21T18:39:13.379Z,39.90
2022-08-21T18:44:15.995Z,42.58
2022-08-21T18:46:51.528Z,21.25
2022-08-21T18:49:18.897Z,31.58
2022-08-21T18:51:46.860Z,24.25
2022-08-21T18:54:14.600Z,29.48
2022-08-21T18:56:42.611Z,26.35
2022-08-21T18:59:12.459Z,18.77
2022-08-21T19:01:41.253Z,18.95
2022-08-21T19:04:17.984Z,17.48
2022-08-21T19:06:52.866Z,12.68
2022-08-21T19:09:20.325Z,27.23
2022-08-21T19:11:51.871Z,12.70
2022-08-21T19:14:19.691Z,11.00
2022-08-21T19:16:50.447Z,11.63
2022-08-21T19:19:18.036Z,14.40
2022-08-21T19:21:46.727Z,17.08
2022-08-21T19:24:18.161Z,12.18
2022-08-21T19:26:50.586Z,16.27
2022-08-21T19:29:35.123Z,14.93
2022-08-21T19:32:07.199Z,14.82
2022-08-21T19:34:36.526Z,9.90
2022-08-21T19:37:06.365Z,14.10
2022-08-21T19:39:40.398Z,21.75
2022-08-21T19:42:11.767Z,17.30
2022-08-21T19:44:40.166Z,14.60
2022-08-21T19:47:18.893Z,20.40
2022-08-21T19:49:54.258Z,15.63
2022-08-21T19:52:23.030Z,15.65
2022-08-21T19:54:51.939Z,16.02
2022-08-21T19:57:19.481Z,10.70
2022-08-21T19:59:46.790Z,13.65
2022-08-21T20:02:16.900Z,15.52
2022-08-21T20:04:53.898Z,15.73
2022-08-21T20:07:32.703Z,12.00
2022-08-21T20:10:00.259Z,13.77
2022-08-21T20:12:27.860Z,17.55
2022-08-21T20:14:55.132Z,24.17
2022-08-21T20:17:24.509Z,14.65
2022-08-21T20:19:55.056Z,17.05
2022-08-21T20:22:24.096Z,21.88
2022-08-21T20:24:51.584Z,19.20
2022-08-21T20:27:24.778Z,25.75
2022-08-21T20:29:52.103Z,24.27
2022-08-21T20:32:19.322Z,18.63
2022-08-21T20:34:52.011Z,18.08
2022-08-21T20:37:22.183Z,13.15
2022-08-21T20:40:10.880Z,10.43
2022-08-21T20:42:46.801Z,16.75
2022-08-21T20:45:28.135Z,13.77
2022-08-21T20:48:08.875Z,13.95
2022-08-21T20:50:42.716Z,18.08
2022-08-21T20:53:20.929Z,15.00
2022-08-21T20:55:50.461Z,13.80
2022-08-21T20:58:33.694Z,13.65
2022-08-21T21:01:06.399Z,13.48
2022-08-21T21:03:46.268Z,14.70
2022-08-21T21:06:24.957Z,13.05
2022-08-21T21:09:14.061Z,11.68
2022-08-21T21:11:53.311Z,13.07
2022-08-21T21:14:35.304Z,17.90
2022-08-21T21:17:06.120Z,15.77
2022-08-21T21:19:43.650Z,20.73
2022-08-21T21:22:39.771Z,19.10
2022-08-21T21:25:21.786Z,13.95
2022-08-21T21:28:00.420Z,16.80
2022-08-21T21:30:39.742Z,12.88
2022-08-21T21:33:15.836Z,10.00
2022-08-21T21:36:07.707Z,20.98
2022-08-21T21:38:52.299Z,12.10
2022-08-21T21:41:49.781Z,9.40
2022-08-21T21:45:02.786Z,11.18
2022-08-21T21:47:48.179Z,11.13
2022-08-21T21:50:42.639Z,14.02
2022-08-21T21:53:15.380Z,12.00
2022-08-21T21:56:05.841Z,11.27
2022-08-21T21:58:53.176Z,13.60
2022-08-21T22:02:09.856Z,14.02
2022-08-21T22:05:15.468Z,8.77
2022-08-21T22:07:57.321Z,17.05
2022-08-21T22:10:43.170Z,22.67
2022-08-21T22:13:33.501Z,12.95
2022-08-21T22:16:06.999Z,10.77
2022-08-21T22:18:47.593Z,12.63
2022-08-21T22:21:35.522Z,11.15
2022-08-21T22:24:24.965Z,11.50
2022-08-21T22:27:05.975Z,11.50
2022-08-21T22:29:52.665Z,32.60
2022-08-21T22:32:25.028Z,11.63
2022-08-21T22:35:14.933Z,19.38
2022-08-21T22:37:53.207Z,11.70
2022-08-21T22:40:27.306Z,16.90
2022-08-21T22:43:07.402Z,15.88
2022-08-21T22:46:07.321Z,18.25
2022-08-21T22:48:40.020Z,15.52
2022-08-21T22:51:48.057Z,25.75
2022-08-21T22:54:32.581Z,10.20
2022-08-21T22:57:05.088Z,8.52
2022-08-21T22:59:39.632Z,18.17
2022-08-21T23:02:36.534Z,15.75
2022-08-21T23:05:31.836Z,12.90
2022-08-21T23:08:26.987Z,13.13
2022-08-21T23:11:08.131Z,15.35
2022-08-21T23:13:46.581Z,13.30
2022-08-21T23:16:36.268Z,9.90
2022-08-21T23:19:34.436Z,15.80
2022-08-21T23:22:30.625Z,9.18
2022-08-21T23:25:23.901Z,9.63
2022-08-21T23:28:25.476Z,12.63
2022-08-21T23:31:26.514Z,11.55
2022-08-21T23:34:06.097Z,12.30
2022-08-21T23:37:23.117Z,8.10
2022-08-21T23:43:38.008Z,13.48
2022-08-21T23:46:36.689Z,12.25
2022-08-21T23:50:14.173Z,17.85
2022-08-21T23:53:08.888Z,14.90
2022-08-21T23:56:01.044Z,17.83
2022-08-21T23:58:33.340Z,25.60
